createdAt,value
2023-02-04T00:00:14.784Z,99.90
2023-02-04T00:03:17.987Z,99.90
2023-02-04T00:06:22.214Z,99.90
2023-02-04T00:09:25.012Z,99.90
2023-02-04T00:12:28.076Z,99.90
2023-02-04T00:15:31.563Z,99.90
2023-02-04T00:18:34.419Z,99.90
2023-02-04T00:21:38.838Z,99.90
2023-02-04T00:24:42.999Z,99.90
2023-02-04T00:27:46.036Z,99.90
2023-02-04T00:30:48.912Z,99.90
2023-02-04T00:33:51.750Z,99.90
2023-02-04T00:36:55.914Z,99.90
2023-02-04T00:39:58.711Z,99.90
2023-02-04T00:43:01.546Z,99.90
2023-02-04T00:46:04.937Z,99.90
2023-02-04T00:49:10.497Z,99.90
2023-02-04T00:52:14.998Z,99.90
2023-02-04T00:55:18.210Z,99.90
2023-02-04T00:58:21.031Z,99.90
2023-02-04T01:01:23.880Z,99.90
2023-02-04T01:04:28.075Z,99.90
2023-02-04T01:07:32.360Z,99.90
2023-02-04T01:10:35.328Z,99.90
2023-02-04T01:13:38.419Z,99.90
2023-02-04T01:16:41.390Z,99.90
2023-02-04T01:19:44.238Z,99.90
2023-02-04T01:22:48.564Z,99.90
2023-02-04T01:25:51.389Z,99.90
2023-02-04T01:28:54.201Z,99.90
2023-02-04T01:31:57.090Z,99.90
2023-02-04T01:34:59.989Z,99.90
2023-02-04T01:38:04.154Z,99.90
2023-02-04T01:41:07.957Z,99.90
2023-02-04T01:44:11.083Z,99.90
2023-02-04T01:47:14.029Z,99.90
2023-02-04T01:50:18.196Z,99.90
2023-02-04T01:53:24.714Z,99.90
2023-02-04T01:56:30.559Z,99.90
2023-02-04T01:59:35.102Z,99.90
2023-02-04T02:02:43.041Z,99.90
2023-02-04T02:05:49.752Z,99.90
2023-02-04T02:08:54.081Z,99.90
2023-02-04T02:11:57.053Z,99.90
2023-02-04T02:15:00.452Z,99.90
2023-02-04T02:18:04.332Z,99.90
2023-02-04T02:21:11.612Z,99.90
2023-02-04T02:24:29.872Z,99.90
2023-02-04T02:27:32.715Z,99.90
2023-02-04T02:30:35.665Z,99.90
2023-02-04T02:33:38.577Z,99.90
2023-02-04T02:36:41.678Z,99.90
2023-02-04T02:39:47.074Z,99.90
2023-02-04T02:42:52.948Z,99.90
2023-02-04T02:45:57.771Z,99.90
2023-02-04T02:49:01.085Z,99.90
2023-02-04T02:52:04.433Z,99.90
2023-02-04T02:55:15.560Z,99.90
2023-02-04T02:58:23.332Z,99.90
2023-02-04T03:01:27.305Z,99.90
2023-02-04T03:04:32.751Z,99.90
2023-02-04T03:07:35.685Z,99.90
2023-02-04T03:10:40.048Z,99.90
2023-02-04T03:13:43.436Z,99.90
2023-02-04T03:16:47.984Z,99.90
2023-02-04T03:19:51.102Z,99.90
2023-02-04T03:22:54.783Z,99.90
2023-02-04T03:25:58.958Z,99.90
2023-02-04T03:29:01.813Z,99.90
2023-02-04T03:32:06.446Z,99.90
2023-02-04T03:35:09.863Z,99.90
2023-02-04T03:38:12.674Z,99.90
2023-02-04T03:41:16.836Z,99.90
2023-02-04T03:44:21.022Z,99.90
2023-02-04T03:47:23.840Z,99.90
2023-02-04T03:50:26.748Z,99.90
2023-02-04T03:53:29.598Z,99.90
2023-02-04T03:56:33.741Z,99.90
2023-02-04T03:59:36.557Z,99.90
2023-02-04T04:02:39.506Z,99.90
2023-02-04T04:05:42.431Z,99.90
2023-02-04T04:08:45.341Z,99.90
2023-02-04T04:11:49.565Z,99.90
2023-02-04T04:14:52.609Z,99.90
2023-02-04T04:17:55.645Z,99.90
2023-02-04T04:20:58.514Z,99.90
2023-02-04T04:24:01.862Z,99.90
2023-02-04T04:27:06.204Z,99.90
2023-02-04T04:30:10.151Z,99.90
2023-02-04T04:33:13.019Z,99.90
2023-02-04T04:36:15.862Z,99.90
2023-02-04T04:39:18.717Z,99.90
2023-02-04T04:42:22.872Z,99.90
2023-02-04T04:45:25.698Z,99.90
2023-02-04T04:48:28.533Z,99.90
2023-02-04T04:51:32.360Z,99.90
2023-02-04T04:54:35.183Z,99.90
2023-02-04T04:57:39.624Z,99.90
2023-02-04T05:00:42.495Z,99.90
2023-02-04T05:03:45.325Z,99.90
2023-02-04T05:06:48.166Z,99.90
2023-02-04T05:09:51.053Z,99.90
2023-02-04T05:12:55.200Z,99.90
2023-02-04T05:15:58.043Z,99.90
2023-02-04T05:19:00.896Z,99.90
2023-02-04T05:22:03.750Z,99.90
2023-02-04T05:25:07.196Z,99.90
2023-02-04T05:28:11.441Z,99.90
2023-02-04T05:31:14.401Z,99.90
2023-02-04T05:34:17.330Z,99.90
2023-02-04T05:37:21.034Z,99.90
2023-02-04T05:40:23.888Z,99.90
2023-02-04T05:43:28.127Z,99.90
2023-02-04T05:46:30.956Z,99.90
2023-02-04T05:49:33.808Z,99.90
2023-02-04T05:52:36.637Z,99.90
2023-02-04T05:55:39.494Z,99.90
2023-02-04T05:58:43.689Z,99.90
2023-02-04T06:01:46.510Z,99.90
2023-02-04T06:04:49.778Z,99.90
2023-02-04T06:07:52.633Z,99.90
2023-02-04T06:10:55.459Z,99.90
2023-02-04T06:13:59.624Z,99.90
2023-02-04T06:17:02.498Z,99.90
2023-02-04T06:20:06.561Z,99.90
2023-02-04T06:23:09.365Z,99.90
2023-02-04T06:26:12.714Z,99.90
2023-02-04T06:29:16.855Z,99.90
2023-02-04T06:32:20.267Z,99.90
2023-02-04T06:35:23.091Z,99.90
2023-02-04T06:38:25.898Z,99.90
2023-02-04T06:41:28.781Z,99.90
2023-02-04T06:44:33.349Z,99.90
2023-02-04T06:47:36.199Z,99.90
2023-02-04T06:50:39.043Z,99.90
2023-02-04T06:53:44.096Z,99.90
2023-02-04T06:56:46.927Z,99.90
2023-02-04T06:59:51.099Z,99.90
2023-02-04T07:02:53.991Z,99.90
2023-02-04T07:05:56.943Z,99.90
2023-02-04T07:08:59.758Z,99.90
2023-02-04T07:12:02.583Z,99.90
2023-02-04T07:15:07.420Z,99.90
2023-02-04T07:18:10.238Z,99.90
2023-02-04T07:21:13.078Z,99.90
2023-02-04T07:24:15.882Z,99.90
2023-02-04T07:27:18.717Z,99.90
2023-02-04T07:30:22.912Z,99.90
2023-02-04T07:33:25.759Z,99.90
2023-02-04T07:36:28.645Z,99.90
2023-02-04T07:39:31.470Z,99.90
2023-02-04T07:42:34.324Z,99.90
2023-02-04T07:45:38.496Z,99.90
2023-02-04T07:48:41.377Z,99.90
2023-02-04T07:51:44.213Z,99.90
2023-02-04T07:54:47.021Z,99.90
2023-02-04T07:57:49.855Z,99.90
2023-02-04T08:00:54.000Z,99.90
2023-02-04T08:03:56.886Z,99.90
2023-02-04T08:06:59.814Z,99.90
2023-02-04T08:10:02.639Z,99.90
2023-02-04T08:13:05.509Z,99.90
2023-02-04T08:16:11.837Z,99.90
2023-02-04T08:19:18.850Z,99.90
2023-02-04T08:22:22.174Z,99.90
2023-02-04T08:25:25.017Z,99.90
2023-02-04T08:28:27.957Z,99.90
2023-02-04T08:31:32.209Z,99.90
2023-02-04T08:34:35.132Z,99.90
2023-02-04T08:37:37.955Z,99.90
2023-02-04T08:40:40.770Z,99.90
2023-02-04T08:43:43.760Z,99.90
2023-02-04T08:46:47.943Z,99.90
2023-02-04T08:49:50.797Z,99.90
2023-02-04T08:52:53.610Z,99.90
2023-02-04T08:55:56.430Z,99.90
2023-02-04T08:58:59.254Z,99.80
2023-02-04T09:02:03.957Z,99.90
2023-02-04T09:05:07.672Z,99.90
2023-02-04T09:08:10.497Z,99.90
2023-02-04T09:11:13.318Z,99.90
2023-02-04T09:14:16.164Z,99.90
2023-02-04T09:17:20.347Z,99.90
2023-02-04T09:20:23.229Z,99.90
2023-02-04T09:23:26.159Z,99.90
2023-02-04T09:26:29.026Z,99.90
2023-02-04T09:29:32.582Z,99.90
2023-02-04T09:32:36.755Z,99.90
2023-02-04T09:35:39.650Z,99.90
2023-02-04T09:38:42.475Z,99.90
2023-02-04T09:41:45.347Z,99.90
2023-02-04T09:44:48.171Z,99.90
2023-02-04T09:47:52.965Z,99.90
2023-02-04T09:51:05.735Z,99.90
2023-02-04T09:54:13.226Z,99.90
2023-02-04T09:57:19.248Z,99.90
2023-02-04T10:00:24.371Z,99.90
2023-02-04T10:03:28.983Z,99.90
2023-02-04T10:06:31.916Z,99.90
2023-02-04T10:09:34.753Z,99.90
2023-02-04T10:12:37.557Z,99.40
2023-02-04T10:15:40.393Z,99.90
2023-02-04T10:18:45.017Z,99.70
2023-02-04T10:21:48.442Z,98.80
2023-02-04T10:24:51.312Z,99.40
2023-02-04T10:27:56.281Z,99.80
2023-02-04T10:30:59.286Z,99.90
2023-02-04T10:34:14.904Z,99.90
2023-02-04T10:37:20.901Z,99.90
2023-02-04T10:40:28.695Z,99.80
2023-02-04T10:43:31.616Z,99.90
2023-02-04T10:46:34.531Z,99.90
2023-02-04T10:49:40.318Z,99.90
2023-02-04T10:52:46.896Z,99.90
2023-02-04T10:55:51.326Z,99.90
2023-02-04T10:58:54.186Z,99.80
2023-02-04T11:01:59.088Z,99.90
2023-02-04T11:05:04.396Z,99.40
2023-02-04T11:08:22.555Z,99.20
2023-02-04T11:11:27.080Z,99.90
2023-02-04T11:14:31.045Z,99.50
2023-02-04T11:17:35.934Z,99.70
2023-02-04T11:20:41.403Z,99.50
2023-02-04T11:23:44.234Z,99.40
2023-02-04T11:26:51.323Z,98.80
2023-02-04T11:30:05.692Z,99.00
2023-02-04T11:33:25.798Z,98.50
2023-02-04T11:36:30.929Z,98.60
2023-02-04T11:39:37.458Z,97.40
2023-02-04T11:42:42.729Z,97.90
2023-02-04T11:45:46.157Z,97.60
2023-02-04T11:48:53.854Z,97.60
2023-02-04T11:52:08.802Z,97.70
2023-02-04T11:55:12.695Z,96.70
2023-02-04T11:58:17.007Z,96.00
2023-02-04T12:01:21.175Z,97.10
2023-02-04T12:04:26.048Z,96.20
2023-02-04T12:07:31.265Z,95.70
2023-02-04T12:10:35.333Z,95.80
2023-02-04T12:13:49.523Z,97.00
2023-02-04T12:16:52.732Z,93.90
2023-02-04T12:19:55.574Z,95.40
2023-02-04T12:22:59.760Z,94.20
2023-02-04T12:26:02.637Z,94.10
2023-02-04T12:29:05.714Z,94.70
2023-02-04T12:32:08.599Z,94.00
2023-02-04T12:35:11.506Z,94.60
2023-02-04T12:38:15.701Z,93.70
2023-02-04T12:41:19.878Z,94.10
2023-02-04T12:44:22.708Z,94.10
2023-02-04T12:47:25.619Z,93.30
2023-02-04T12:50:28.453Z,92.10
2023-02-04T12:53:32.611Z,91.70
2023-02-04T12:56:35.450Z,89.60
2023-02-04T12:59:38.364Z,90.70
2023-02-04T13:02:41.468Z,91.70
2023-02-04T13:05:44.308Z,90.80
2023-02-04T13:08:48.480Z,91.20
2023-02-04T13:11:51.296Z,90.90
2023-02-04T13:14:54.119Z,91.80
2023-02-04T13:17:56.945Z,92.00
2023-02-04T13:20:59.750Z,92.50
2023-02-04T13:24:03.993Z,91.90
2023-02-04T13:27:06.846Z,91.70
2023-02-04T13:30:12.846Z,91.30
2023-02-04T13:33:16.705Z,91.40
2023-02-04T13:36:19.524Z,91.30
2023-02-04T13:39:23.749Z,91.90
2023-02-04T13:42:26.586Z,91.60
2023-02-04T13:45:29.447Z,91.90
2023-02-04T13:48:32.402Z,92.10
2023-02-04T13:51:35.230Z,92.90
2023-02-04T13:54:39.394Z,93.20
2023-02-04T13:57:42.277Z,92.40
2023-02-04T14:00:45.085Z,92.00
2023-02-04T14:03:47.963Z,92.70
2023-02-04T14:06:50.782Z,92.80
2023-02-04T14:09:55.146Z,93.40
2023-02-04T14:12:58.578Z,92.90
2023-02-04T14:16:01.430Z,93.10
2023-02-04T14:19:04.588Z,93.10
2023-02-04T14:22:07.812Z,92.90
2023-02-04T14:25:12.065Z,92.70
2023-02-04T14:28:15.622Z,92.40
2023-02-04T14:31:19.056Z,90.80
2023-02-04T14:34:21.984Z,90.90
2023-02-04T14:37:28.486Z,91.10
2023-02-04T14:40:32.904Z,91.40
2023-02-04T14:43:37.301Z,91.20
2023-02-04T14:46:41.403Z,90.80
2023-02-04T14:49:44.399Z,91.00
2023-02-04T14:52:47.219Z,90.80
2023-02-04T14:55:51.392Z,91.80
2023-02-04T14:58:54.209Z,91.40
2023-02-04T15:01:57.386Z,91.20
2023-02-04T15:05:00.339Z,91.10
2023-02-04T15:08:03.239Z,91.30
2023-02-04T15:11:08.270Z,91.80
2023-02-04T15:14:11.174Z,91.40
2023-02-04T15:17:14.086Z,91.40
2023-02-04T15:20:17.321Z,90.90
2023-02-04T15:23:20.174Z,91.30
2023-02-04T15:26:25.047Z,92.10
2023-02-04T15:29:28.063Z,91.40
2023-02-04T15:32:30.886Z,92.40
2023-02-04T15:35:33.730Z,91.90
2023-02-04T15:38:36.810Z,92.10
2023-02-04T15:41:41.186Z,91.70
2023-02-04T15:44:44.030Z,91.20
2023-02-04T15:47:46.857Z,92.20
2023-02-04T15:50:49.677Z,92.10
2023-02-04T15:53:52.497Z,92.30
2023-02-04T15:56:56.672Z,92.20
2023-02-04T15:59:59.554Z,92.00
2023-02-04T16:03:02.442Z,92.20
2023-02-04T16:06:05.596Z,92.00
2023-02-04T16:09:08.462Z,91.80
2023-02-04T16:12:12.627Z,92.20
2023-02-04T16:15:15.862Z,92.10
2023-02-04T16:18:18.672Z,91.70
2023-02-04T16:21:21.486Z,91.20
2023-02-04T16:24:24.460Z,91.20
2023-02-04T16:27:28.646Z,91.60
2023-02-04T16:30:31.473Z,91.80
2023-02-04T16:33:34.320Z,91.80
2023-02-04T16:36:37.966Z,91.70
2023-02-04T16:39:42.854Z,91.60
2023-02-04T16:42:47.478Z,91.60
2023-02-04T16:45:50.484Z,91.80
2023-02-04T16:48:53.735Z,91.90
2023-02-04T16:51:56.618Z,92.00
2023-02-04T16:55:00.238Z,91.90
2023-02-04T16:58:04.424Z,92.10
2023-02-04T17:01:07.433Z,92.40
2023-02-04T17:04:10.278Z,92.20
2023-02-04T17:07:13.563Z,92.20
2023-02-04T17:10:36.989Z,92.20
2023-02-04T17:13:41.195Z,95.40
2023-02-04T17:16:44.272Z,93.00
2023-02-04T17:19:47.133Z,92.60
2023-02-04T17:22:49.932Z,92.60
2023-02-04T17:25:52.755Z,92.70
2023-02-04T17:28:57.038Z,92.70
2023-02-04T17:31:59.879Z,92.70
2023-02-04T17:35:02.754Z,92.40
2023-02-04T17:38:05.557Z,92.30
2023-02-04T17:41:08.428Z,92.20
2023-02-04T17:44:16.926Z,92.20
2023-02-04T17:47:19.803Z,92.20
2023-02-04T17:50:22.905Z,91.60
2023-02-04T17:53:25.799Z,91.20
2023-02-04T17:56:28.751Z,91.40
2023-02-04T17:59:33.457Z,91.40
2023-02-04T18:02:36.516Z,91.30
2023-02-04T18:05:45.773Z,91.20
2023-02-04T18:08:49.477Z,91.30
2023-02-04T18:11:52.320Z,91.00
2023-02-04T18:14:56.566Z,91.00
2023-02-04T18:18:07.336Z,91.20
2023-02-04T18:21:19.529Z,90.80
2023-02-04T18:24:27.235Z,90.90
2023-02-04T18:27:32.629Z,90.20
2023-02-04T18:30:37.461Z,90.60
2023-02-04T18:33:41.766Z,90.70
2023-02-04T18:36:44.589Z,90.40
2023-02-04T18:39:47.491Z,90.40
2023-02-04T18:42:50.634Z,90.50
2023-02-04T18:45:55.350Z,90.70
2023-02-04T18:49:05.131Z,90.60
2023-02-04T18:52:18.193Z,90.80
2023-02-04T18:55:26.030Z,90.80
2023-02-04T18:58:31.856Z,90.70
2023-02-04T19:01:40.058Z,90.80
2023-02-04T19:04:42.983Z,90.50
2023-02-04T19:07:45.815Z,90.70
2023-02-04T19:10:49.615Z,90.80
2023-02-04T19:13:54.852Z,90.70
2023-02-04T19:17:16.848Z,90.60
2023-02-04T19:20:23.811Z,90.70
2023-02-04T19:23:26.643Z,90.90
2023-02-04T19:26:33.992Z,91.10
2023-02-04T19:29:40.508Z,91.20
2023-02-04T19:32:46.521Z,91.20
2023-02-04T19:35:49.943Z,91.20
2023-02-04T19:38:59.382Z,91.10
2023-02-04T19:42:02.492Z,91.10
2023-02-04T19:45:19.198Z,91.30
2023-02-04T19:48:29.775Z,91.70
2023-02-04T19:51:33.099Z,91.30
2023-02-04T19:54:39.427Z,91.40
2023-02-04T19:57:42.254Z,91.50
2023-02-04T20:00:59.716Z,91.50
2023-02-04T20:04:13.679Z,91.60
2023-02-04T20:07:20.750Z,91.70
2023-02-04T20:10:26.628Z,91.80
2023-02-04T20:13:29.836Z,91.80
2023-02-04T20:16:39.461Z,91.80
2023-02-04T20:19:43.640Z,92.00
2023-02-04T20:22:49.388Z,92.20
2023-02-04T20:25:53.518Z,92.30
2023-02-04T20:28:56.350Z,92.50
2023-02-04T20:31:59.192Z,92.40
2023-02-04T20:35:38.814Z,92.50
2023-02-04T20:38:41.930Z,92.60
2023-02-04T20:41:44.856Z,92.70
2023-02-04T20:44:48.137Z,92.70
2023-02-04T20:47:53.569Z,92.70
2023-02-04T20:51:00.984Z,92.80
2023-02-04T20:54:11.995Z,93.00
2023-02-04T20:57:21.754Z,93.10
2023-02-04T21:00:34.429Z,93.00
2023-02-04T21:03:38.726Z,93.50
2023-02-04T21:06:43.384Z,93.50
2023-02-04T21:09:46.516Z,93.40
2023-02-04T21:12:49.470Z,93.50
2023-02-04T21:15:52.596Z,93.40
2023-02-04T21:18:55.470Z,93.70
2023-02-04T21:21:59.640Z,93.90
2023-02-04T21:25:02.473Z,93.70
2023-02-04T21:28:05.965Z,93.70
2023-02-04T21:31:09.894Z,93.90
2023-02-04T21:34:13.062Z,93.80
2023-02-04T21:37:17.236Z,93.70
2023-02-04T21:40:23.336Z,93.80
2023-02-04T21:43:26.269Z,94.00
2023-02-04T21:46:29.159Z,94.00
2023-02-04T21:49:32.500Z,94.10
2023-02-04T21:52:36.664Z,94.30
2023-02-04T21:55:40.664Z,94.20
2023-02-04T21:58:43.713Z,94.20
2023-02-04T22:01:46.595Z,94.00
2023-02-04T22:04:49.446Z,93.90
2023-02-04T22:07:54.195Z,93.70
2023-02-04T22:10:57.006Z,93.80
2023-02-04T22:13:59.831Z,93.70
2023-02-04T22:17:02.785Z,93.80
2023-02-04T22:20:06.610Z,93.80
2023-02-04T22:23:10.778Z,93.90
2023-02-04T22:26:13.602Z,93.90
2023-02-04T22:29:21.598Z,94.00
2023-02-04T22:32:24.728Z,94.00
2023-02-04T22:35:29.728Z,94.10
2023-02-04T22:38:33.957Z,94.20
2023-02-04T22:41:36.993Z,94.50
2023-02-04T22:44:39.832Z,94.50
2023-02-04T22:47:42.751Z,94.50
2023-02-04T22:50:45.651Z,94.20
2023-02-04T22:53:50.240Z,94.40
2023-02-04T22:56:53.150Z,94.60
2023-02-04T22:59:56.021Z,94.60
2023-02-04T23:02:58.865Z,94.50
2023-02-04T23:06:01.881Z,94.40
2023-02-04T23:09:06.338Z,94.30
2023-02-04T23:12:15.672Z,94.40
2023-02-04T23:15:18.685Z,94.30
2023-02-04T23:18:21.586Z,94.20
2023-02-04T23:21:25.037Z,94.30
2023-02-04T23:24:29.870Z,94.20
2023-02-04T23:27:32.742Z,94.20
2023-02-04T23:30:35.590Z,94.20
2023-02-04T23:33:38.454Z,94.00
2023-02-04T23:36:42.544Z,94.10
2023-02-04T23:39:46.750Z,94.00
2023-02-04T23:42:49.586Z,94.20
2023-02-04T23:45:52.471Z,94.20
2023-02-04T23:48:55.334Z,94.20
2023-02-04T23:51:58.197Z,94.10
2023-02-04T23:55:02.478Z,94.00
2023-02-04T23:58:06.666Z,94.20
